createdAt,value
2017-09-12T00:00:15.313Z,992.32
2017-09-12T00:01:15.278Z,992.36
2017-09-12T00:02:15.251Z,992.39
2017-09-12T00:03:15.218Z,992.39
2017-09-12T00:04:15.188Z,992.43
2017-09-12T00:05:15.157Z,992.42
2017-09-12T00:06:15.126Z,992.51
2017-09-12T00:07:15.096Z,992.39
2017-09-12T00:08:15.065Z,992.46
2017-09-12T00:09:15.034Z,992.42
2017-09-12T00:10:15.004Z,992.40
2017-09-12T00:11:14.980Z,992.38
2017-09-12T00:12:14.941Z,992.35
2017-09-12T00:13:14.914Z,992.43
2017-09-12T00:14:14.880Z,992.30
2017-09-12T00:15:14.851Z,992.43
2017-09-12T00:16:14.819Z,992.38
2017-09-12T00:17:14.787Z,992.43
2017-09-12T00:18:14.754Z,992.45
2017-09-12T00:19:14.726Z,992.47
2017-09-12T00:20:14.695Z,992.32
2017-09-12T00:21:14.664Z,992.33
2017-09-12T00:22:14.634Z,992.33
2017-09-12T00:23:14.602Z,992.43
2017-09-12T00:24:14.582Z,992.56
2017-09-12T00:25:14.541Z,992.51
2017-09-12T00:26:14.507Z,992.39
2017-09-12T00:27:15.052Z,992.53
2017-09-12T00:28:14.449Z,992.50
2017-09-12T00:29:14.419Z,992.53
2017-09-12T00:30:14.388Z,992.54
2017-09-12T00:31:14.361Z,992.45
2017-09-12T00:32:14.328Z,992.46
2017-09-12T00:33:14.297Z,992.45
2017-09-12T00:34:14.265Z,992.53
2017-09-12T00:35:14.233Z,992.56
2017-09-12T00:36:14.207Z,992.55
2017-09-12T00:37:14.172Z,992.50
2017-09-12T00:38:14.305Z,992.51
2017-09-12T00:39:14.111Z,992.54
2017-09-12T00:40:14.079Z,992.57
2017-09-12T00:41:14.050Z,992.52
2017-09-12T00:42:14.020Z,992.40
2017-09-12T00:43:13.989Z,992.39
2017-09-12T00:44:13.957Z,992.55
2017-09-12T00:45:13.927Z,992.52
2017-09-12T00:46:13.896Z,992.59
2017-09-12T00:47:13.865Z,992.50
2017-09-12T00:48:13.841Z,992.57
2017-09-12T00:49:13.804Z,992.52
2017-09-12T00:50:13.776Z,992.58
2017-09-12T00:51:14.653Z,992.62
2017-09-12T00:52:13.712Z,992.61
2017-09-12T00:53:13.682Z,992.63
2017-09-12T00:54:13.651Z,992.65
2017-09-12T00:55:13.620Z,992.71
2017-09-12T00:56:13.590Z,992.69
2017-09-12T00:57:13.558Z,992.70
2017-09-12T00:58:13.528Z,992.73
2017-09-12T00:59:13.498Z,992.61
2017-09-12T01:00:13.467Z,992.76
2017-09-12T01:01:13.435Z,992.71
2017-09-12T01:02:13.406Z,992.62
2017-09-12T01:03:13.376Z,992.66
2017-09-12T01:04:13.344Z,992.74
2017-09-12T01:05:13.314Z,992.82
2017-09-12T01:06:13.283Z,992.72
2017-09-12T01:07:13.251Z,992.79
2017-09-12T01:08:13.222Z,992.78
2017-09-12T01:09:13.191Z,992.83
2017-09-12T01:10:13.162Z,992.76
2017-09-12T01:11:13.134Z,992.80
2017-09-12T01:12:13.098Z,992.83
2017-09-12T01:13:13.071Z,992.87
2017-09-12T01:14:13.039Z,992.87
2017-09-12T01:15:13.010Z,992.93
2017-09-12T01:16:12.977Z,992.95
2017-09-12T01:17:12.947Z,992.93
2017-09-12T01:18:12.917Z,992.95
2017-09-12T01:19:12.888Z,992.96
2017-09-12T01:20:12.857Z,993.00
2017-09-12T01:21:12.825Z,992.90
2017-09-12T01:22:12.797Z,992.92
2017-09-12T01:23:12.767Z,992.93
2017-09-12T01:24:12.824Z,992.86
2017-09-12T01:25:12.706Z,992.97
2017-09-12T01:26:12.675Z,992.93
2017-09-12T01:27:12.644Z,992.87
2017-09-12T01:28:12.612Z,992.99
2017-09-12T01:29:12.589Z,993.00
2017-09-12T01:30:12.553Z,992.98
2017-09-12T01:31:12.521Z,992.96
2017-09-12T01:32:12.491Z,993.04
2017-09-12T01:33:12.460Z,992.98
2017-09-12T01:34:12.431Z,993.05
2017-09-12T01:35:12.401Z,993.01
2017-09-12T01:36:12.369Z,992.95
2017-09-12T01:37:12.339Z,993.04
2017-09-12T01:38:12.308Z,993.01
2017-09-12T01:39:12.280Z,993.02
2017-09-12T01:40:12.247Z,993.05
2017-09-12T01:41:12.218Z,993.06
2017-09-12T01:42:12.188Z,993.07
2017-09-12T01:43:12.157Z,993.08
2017-09-12T01:44:12.126Z,993.01
2017-09-12T01:45:12.319Z,993.08
2017-09-12T01:46:12.066Z,993.09
2017-09-12T01:47:12.036Z,993.10
2017-09-12T01:48:12.005Z,993.04
2017-09-12T01:49:11.974Z,993.10
2017-09-12T01:50:11.943Z,993.04
2017-09-12T01:51:11.914Z,993.07
2017-09-12T01:52:11.882Z,993.07
2017-09-12T01:53:11.853Z,992.96
2017-09-12T01:54:11.823Z,993.12
2017-09-12T01:55:11.793Z,993.10
2017-09-12T01:56:11.762Z,993.08
2017-09-12T01:57:11.732Z,993.10
2017-09-12T01:58:11.701Z,993.06
2017-09-12T01:59:11.671Z,993.15
2017-09-12T02:00:11.640Z,993.14
2017-09-12T02:01:11.610Z,993.08
2017-09-12T02:02:11.579Z,993.00
2017-09-12T02:03:11.549Z,992.94
2017-09-12T02:04:11.519Z,993.14
2017-09-12T02:05:11.488Z,993.10
2017-09-12T02:06:11.458Z,993.13
2017-09-12T02:07:11.429Z,992.95
2017-09-12T02:08:11.396Z,993.11
2017-09-12T02:09:11.366Z,992.99
2017-09-12T02:10:11.337Z,993.08
2017-09-12T02:11:11.307Z,993.10
2017-09-12T02:12:11.275Z,993.01
2017-09-12T02:13:11.245Z,993.03
2017-09-12T02:14:11.214Z,993.03
2017-09-12T02:15:11.181Z,993.18
2017-09-12T02:16:11.152Z,993.20
2017-09-12T02:17:11.121Z,993.22
2017-09-12T02:18:11.109Z,993.22
2017-09-12T02:19:11.062Z,993.22
2017-09-12T02:20:11.030Z,993.27
2017-09-12T02:21:11.000Z,993.26
2017-09-12T02:22:10.970Z,993.20
2017-09-12T02:23:10.940Z,993.12
2017-09-12T02:24:10.909Z,993.20
2017-09-12T02:25:10.896Z,993.20
2017-09-12T02:26:10.849Z,993.25
2017-09-12T02:27:10.815Z,993.18
2017-09-12T02:28:10.784Z,993.21
2017-09-12T02:29:10.754Z,993.21
2017-09-12T02:30:10.731Z,993.21
2017-09-12T02:31:10.693Z,993.25
2017-09-12T02:32:10.659Z,993.20
2017-09-12T02:33:10.630Z,993.19
2017-09-12T02:34:10.598Z,993.15
2017-09-12T02:35:10.567Z,993.19
2017-09-12T02:36:10.538Z,993.22
2017-09-12T02:37:10.505Z,993.19
2017-09-12T02:38:10.473Z,993.16
2017-09-12T02:39:10.445Z,993.20
2017-09-12T02:40:10.411Z,993.21
2017-09-12T02:41:10.379Z,993.23
2017-09-12T02:42:10.349Z,993.13
2017-09-12T02:43:10.321Z,993.21
2017-09-12T02:44:10.284Z,993.16
2017-09-12T02:45:10.253Z,993.23
2017-09-12T02:46:10.223Z,993.31
2017-09-12T02:47:10.189Z,993.30
2017-09-12T02:48:10.158Z,993.32
2017-09-12T02:49:10.129Z,993.39
2017-09-12T02:50:10.093Z,993.37
2017-09-12T02:51:10.063Z,993.35
2017-09-12T02:52:10.034Z,993.42
2017-09-12T02:53:10.003Z,993.36
2017-09-12T02:54:09.969Z,993.38
2017-09-12T02:55:09.934Z,993.40
2017-09-12T02:56:09.904Z,993.41
2017-09-12T02:57:09.871Z,993.38
2017-09-12T02:58:09.838Z,993.42
2017-09-12T02:59:09.937Z,993.39
2017-09-12T03:00:09.775Z,993.35
2017-09-12T03:01:09.746Z,993.41
2017-09-12T03:02:09.711Z,993.40
2017-09-12T03:03:09.679Z,993.45
2017-09-12T03:04:09.646Z,993.45
2017-09-12T03:05:09.615Z,993.37
2017-09-12T03:06:09.583Z,993.43
2017-09-12T03:07:09.550Z,993.49
2017-09-12T03:08:09.516Z,993.48
2017-09-12T03:09:09.486Z,993.31
2017-09-12T03:10:09.455Z,993.43
2017-09-12T03:11:09.424Z,993.49
2017-09-12T03:12:09.928Z,993.38
2017-09-12T03:13:09.359Z,993.54
2017-09-12T03:14:09.327Z,993.57
2017-09-12T03:15:09.294Z,993.48
2017-09-12T03:16:09.261Z,993.54
2017-09-12T03:17:09.229Z,993.61
2017-09-12T03:18:09.199Z,993.54
2017-09-12T03:19:09.205Z,993.59
2017-09-12T03:20:09.139Z,993.67
2017-09-12T03:21:09.102Z,993.58
2017-09-12T03:22:09.071Z,993.61
2017-09-12T03:23:09.038Z,993.76
2017-09-12T03:24:09.005Z,993.73
2017-09-12T03:25:08.973Z,993.69
2017-09-12T03:26:08.944Z,993.75
2017-09-12T03:27:08.912Z,993.78
2017-09-12T03:28:08.877Z,993.76
2017-09-12T03:29:08.845Z,993.78
2017-09-12T03:30:08.815Z,993.68
2017-09-12T03:31:08.782Z,993.68
2017-09-12T03:32:08.749Z,993.74
2017-09-12T03:33:08.717Z,993.77
2017-09-12T03:34:08.686Z,993.79
2017-09-12T03:35:08.663Z,993.83
2017-09-12T03:36:08.620Z,993.80
2017-09-12T03:37:08.590Z,993.78
2017-09-12T03:38:08.559Z,993.91
2017-09-12T03:39:08.525Z,993.82
2017-09-12T03:40:08.498Z,993.82
2017-09-12T03:41:08.804Z,993.82
2017-09-12T03:42:08.427Z,993.87
2017-09-12T03:43:08.399Z,993.84
2017-09-12T03:44:08.364Z,993.87
2017-09-12T03:45:08.333Z,993.95
2017-09-12T03:46:08.301Z,993.92
2017-09-12T03:47:08.269Z,993.98
2017-09-12T03:48:08.236Z,993.97
2017-09-12T03:49:08.204Z,993.91
2017-09-12T03:50:08.173Z,993.96
2017-09-12T03:51:08.141Z,994.05
2017-09-12T03:52:08.110Z,993.97
2017-09-12T03:53:08.076Z,993.99
2017-09-12T03:54:08.044Z,994.00
2017-09-12T03:55:08.015Z,994.08
2017-09-12T03:56:07.980Z,994.04
2017-09-12T03:57:07.951Z,994.06
2017-09-12T03:58:07.917Z,994.12
2017-09-12T03:59:07.886Z,994.15
2017-09-12T04:00:07.867Z,994.12
2017-09-12T04:01:07.821Z,994.09
2017-09-12T04:02:07.787Z,994.24
2017-09-12T04:03:07.758Z,994.11
2017-09-12T04:04:07.724Z,994.18
2017-09-12T04:05:07.692Z,994.22
2017-09-12T04:06:07.661Z,994.16
2017-09-12T04:07:07.868Z,994.19
2017-09-12T04:08:07.597Z,994.16
2017-09-12T04:09:07.562Z,994.18
2017-09-12T04:10:07.554Z,994.18
2017-09-12T04:11:07.500Z,994.18
2017-09-12T04:12:07.934Z,994.22
2017-09-12T04:13:07.437Z,994.21
2017-09-12T04:14:07.404Z,994.21
2017-09-12T04:15:07.377Z,994.23
2017-09-12T04:16:07.346Z,994.29
2017-09-12T04:17:07.309Z,994.20
2017-09-12T04:18:07.278Z,994.22
2017-09-12T04:19:07.245Z,994.30
2017-09-12T04:20:07.206Z,994.25
2017-09-12T04:21:07.181Z,994.33
2017-09-12T04:22:07.148Z,994.38
2017-09-12T04:23:07.118Z,994.35
2017-09-12T04:24:07.554Z,994.36
2017-09-12T04:25:07.055Z,994.46
2017-09-12T04:26:07.021Z,994.42
2017-09-12T04:27:06.991Z,994.37
2017-09-12T04:28:07.032Z,994.50
2017-09-12T04:29:06.927Z,994.36
2017-09-12T04:30:06.895Z,994.41
2017-09-12T04:31:06.879Z,994.48
2017-09-12T04:32:06.834Z,994.46
2017-09-12T04:33:06.799Z,994.55
2017-09-12T04:34:06.767Z,994.49
2017-09-12T04:35:06.735Z,994.56
2017-09-12T04:36:06.702Z,994.59
2017-09-12T04:37:06.671Z,994.59
2017-09-12T04:38:06.640Z,994.62
2017-09-12T04:39:06.610Z,994.55
2017-09-12T04:40:06.576Z,994.67
2017-09-12T04:41:06.544Z,994.63
2017-09-12T04:42:06.514Z,994.71
2017-09-12T04:43:06.482Z,994.54
2017-09-12T04:44:06.450Z,994.68
2017-09-12T04:45:06.417Z,994.66
2017-09-12T04:46:06.388Z,994.52
2017-09-12T04:47:06.355Z,994.58
2017-09-12T04:48:06.321Z,994.65
2017-09-12T04:49:06.292Z,994.87
2017-09-12T04:50:06.258Z,994.85
2017-09-12T04:51:06.226Z,994.85
2017-09-12T04:52:06.194Z,994.77
2017-09-12T04:53:06.164Z,994.85
2017-09-12T04:54:06.137Z,994.84
2017-09-12T04:55:06.101Z,994.79
2017-09-12T04:56:06.069Z,994.87
2017-09-12T04:57:06.035Z,994.84
2017-09-12T04:58:06.005Z,994.90
2017-09-12T04:59:05.972Z,994.94
2017-09-12T05:00:05.940Z,994.93
2017-09-12T05:01:05.910Z,994.87
2017-09-12T05:02:05.876Z,994.97
2017-09-12T05:03:05.844Z,994.94
2017-09-12T05:04:05.814Z,994.99
2017-09-12T05:05:05.782Z,994.90
2017-09-12T05:06:05.749Z,994.95
2017-09-12T05:07:05.717Z,994.85
2017-09-12T05:08:05.684Z,995.00
2017-09-12T05:09:05.653Z,994.94
2017-09-12T05:10:05.620Z,994.96
2017-09-12T05:11:05.589Z,994.96
2017-09-12T05:12:05.557Z,995.06
2017-09-12T05:13:05.524Z,994.99
2017-09-12T05:14:05.493Z,995.07
2017-09-12T05:15:05.463Z,995.06
2017-09-12T05:16:05.431Z,995.03
2017-09-12T05:17:05.396Z,995.08
2017-09-12T05:18:05.366Z,995.05
2017-09-12T05:19:05.335Z,995.10
2017-09-12T05:20:05.638Z,995.14
2017-09-12T05:21:05.270Z,995.14
2017-09-12T05:22:05.237Z,995.19
2017-09-12T05:23:05.206Z,995.14
2017-09-12T05:24:05.397Z,995.21
2017-09-12T05:25:05.143Z,995.25
2017-09-12T05:26:05.110Z,995.26
2017-09-12T05:27:05.078Z,995.22
2017-09-12T05:28:05.047Z,995.27
2017-09-12T05:29:05.014Z,995.31
2017-09-12T05:30:04.982Z,995.37
2017-09-12T05:31:04.951Z,995.32
2017-09-12T05:32:04.918Z,995.39
2017-09-12T05:33:04.887Z,995.34
2017-09-12T05:34:04.868Z,995.41
2017-09-12T05:35:04.823Z,995.41
2017-09-12T05:36:04.787Z,995.45
2017-09-12T05:37:04.760Z,995.52
2017-09-12T05:38:04.725Z,995.48
2017-09-12T05:39:04.693Z,995.56
2017-09-12T05:40:04.661Z,995.55
2017-09-12T05:41:04.628Z,995.59
2017-09-12T05:42:04.597Z,995.53
2017-09-12T05:43:04.588Z,995.56
2017-09-12T05:44:04.532Z,995.55
2017-09-12T05:45:04.500Z,995.67
2017-09-12T05:46:04.470Z,995.69
2017-09-12T05:47:04.437Z,995.65
2017-09-12T05:48:04.405Z,995.70
2017-09-12T05:49:04.374Z,995.69
2017-09-12T05:50:04.341Z,995.69
2017-09-12T05:51:04.308Z,995.67
2017-09-12T05:52:04.277Z,995.79
2017-09-12T05:53:04.244Z,995.79
2017-09-12T05:54:04.213Z,995.73
2017-09-12T05:55:04.181Z,995.80
2017-09-12T05:56:04.151Z,995.81
2017-09-12T05:57:04.117Z,995.91
2017-09-12T05:58:04.085Z,995.77
2017-09-12T05:59:04.056Z,995.84
2017-09-12T06:00:04.025Z,995.80
2017-09-12T06:01:03.992Z,995.86
2017-09-12T06:02:03.961Z,995.88
2017-09-12T06:03:03.930Z,995.92
2017-09-12T06:04:03.897Z,996.01
2017-09-12T06:05:03.865Z,995.99
2017-09-12T06:06:04.184Z,996.05
2017-09-12T06:07:03.804Z,995.97
2017-09-12T06:08:03.770Z,996.05
2017-09-12T06:09:03.741Z,996.07
2017-09-12T06:10:03.710Z,995.98
2017-09-12T06:11:03.681Z,996.08
2017-09-12T06:12:03.649Z,996.14
2017-09-12T06:13:03.618Z,996.17
2017-09-12T06:14:03.588Z,996.13
2017-09-12T06:15:03.556Z,996.10
2017-09-12T06:16:03.526Z,996.12
2017-09-12T06:17:03.497Z,996.12
2017-09-12T06:18:03.466Z,996.14
2017-09-12T06:19:03.434Z,996.10
2017-09-12T06:20:03.405Z,996.12
2017-09-12T06:21:03.373Z,996.05
2017-09-12T06:22:03.346Z,996.09
2017-09-12T06:23:03.316Z,996.10
2017-09-12T06:24:03.284Z,996.02
2017-09-12T06:25:03.255Z,995.97
2017-09-12T06:26:03.227Z,996.02
2017-09-12T06:27:03.190Z,996.06
2017-09-12T06:28:03.166Z,996.01
2017-09-12T06:29:03.135Z,995.99
2017-09-12T06:30:03.105Z,995.98
2017-09-12T06:31:03.074Z,996.05
2017-09-12T06:32:03.042Z,996.05
2017-09-12T06:33:03.016Z,996.09
2017-09-12T06:34:02.984Z,996.09
2017-09-12T06:35:02.954Z,996.07
2017-09-12T06:36:02.924Z,996.09
2017-09-12T06:37:02.894Z,996.15
2017-09-12T06:38:02.864Z,996.18
2017-09-12T06:39:02.834Z,996.21
2017-09-12T06:40:02.805Z,996.17
2017-09-12T06:41:02.775Z,996.25
2017-09-12T06:42:02.742Z,996.23
2017-09-12T06:43:02.712Z,996.21
2017-09-12T06:44:02.958Z,996.26
2017-09-12T06:45:02.650Z,996.25
2017-09-12T06:46:02.621Z,996.26
2017-09-12T06:47:02.590Z,996.25
2017-09-12T06:48:02.967Z,996.30
2017-09-12T06:49:02.527Z,996.30
2017-09-12T06:50:02.498Z,996.34
2017-09-12T06:51:02.464Z,996.36
2017-09-12T06:52:02.436Z,996.36
2017-09-12T06:53:02.404Z,996.38
2017-09-12T06:54:02.374Z,996.45
2017-09-12T06:55:02.346Z,996.47
2017-09-12T06:56:02.318Z,996.50
2017-09-12T06:57:02.283Z,996.55
2017-09-12T06:58:02.251Z,996.48
2017-09-12T06:59:02.221Z,996.54
2017-09-12T07:00:02.189Z,996.54
2017-09-12T07:01:02.157Z,996.59
2017-09-12T07:02:02.194Z,996.58
2017-09-12T07:03:02.326Z,996.62
2017-09-12T07:04:02.067Z,996.56
2017-09-12T07:05:02.032Z,996.68
2017-09-12T07:06:02.002Z,996.70
2017-09-12T07:07:02.400Z,996.73
2017-09-12T07:08:02.399Z,996.73
2017-09-12T07:09:01.910Z,996.61
2017-09-12T07:10:01.884Z,996.71
2017-09-12T07:11:01.846Z,996.69
2017-09-12T07:12:01.815Z,996.71
2017-09-12T07:13:01.784Z,996.70
2017-09-12T07:14:01.753Z,996.80
2017-09-12T07:15:01.722Z,996.78
2017-09-12T07:16:01.693Z,996.74
2017-09-12T07:17:01.655Z,996.80
2017-09-12T07:18:01.629Z,996.86
2017-09-12T07:19:01.596Z,996.83
2017-09-12T07:20:01.565Z,996.81
2017-09-12T07:21:01.532Z,996.83
2017-09-12T07:22:01.503Z,996.89
2017-09-12T07:23:01.470Z,996.97
2017-09-12T07:24:01.452Z,996.94
2017-09-12T07:25:01.406Z,996.94
2017-09-12T07:26:01.376Z,996.92
2017-09-12T07:27:01.348Z,996.99
2017-09-12T07:28:01.314Z,996.96
2017-09-12T07:29:01.283Z,997.01
2017-09-12T07:30:01.251Z,997.01
2017-09-12T07:31:01.222Z,997.02
2017-09-12T07:32:01.189Z,997.01
2017-09-12T07:33:01.158Z,997.03
2017-09-12T07:34:01.127Z,997.01
2017-09-12T07:35:01.095Z,996.98
2017-09-12T07:36:01.065Z,996.98
2017-09-12T07:37:01.033Z,997.00
2017-09-12T07:38:01.003Z,997.06
2017-09-12T07:39:00.970Z,997.10
2017-09-12T07:40:00.939Z,997.10
2017-09-12T07:41:00.909Z,997.07
2017-09-12T07:42:00.882Z,997.12
2017-09-12T07:43:00.849Z,997.12
2017-09-12T07:44:00.820Z,997.04
2017-09-12T07:45:00.785Z,997.14
2017-09-12T07:46:00.754Z,997.11
2017-09-12T07:47:00.722Z,997.16
2017-09-12T07:48:00.691Z,997.21
2017-09-12T07:49:00.659Z,997.14
2017-09-12T07:50:00.629Z,997.27
2017-09-12T07:51:00.598Z,997.32
2017-09-12T07:52:00.566Z,997.49
2017-09-12T07:53:00.536Z,997.51
2017-09-12T07:54:00.515Z,997.59
2017-09-12T07:55:00.474Z,997.53
2017-09-12T07:56:00.443Z,997.62
2017-09-12T07:57:00.412Z,997.55
2017-09-12T07:58:00.380Z,997.57
2017-09-12T07:59:00.351Z,997.57
2017-09-12T08:00:00.319Z,997.65
2017-09-12T08:01:00.288Z,997.64
2017-09-12T08:02:00.257Z,997.67
2017-09-12T08:03:00.226Z,997.56
2017-09-12T08:04:00.199Z,997.70
2017-09-12T08:05:00.168Z,997.72
2017-09-12T08:06:00.138Z,997.73
2017-09-12T08:07:00.109Z,997.77
2017-09-12T08:08:00.079Z,998.09
2017-09-12T08:09:00.049Z,998.15
2017-09-12T08:10:00.020Z,998.15
2017-09-12T08:10:59.991Z,998.09
2017-09-12T08:11:59.958Z,998.10
2017-09-12T08:12:59.932Z,998.09
2017-09-12T08:13:59.904Z,998.09
2017-09-12T08:14:59.877Z,998.13
2017-09-12T08:15:59.847Z,998.13
2017-09-12T08:16:59.819Z,998.06
2017-09-12T08:17:59.791Z,998.13
2017-09-12T08:18:59.763Z,998.05
2017-09-12T08:19:59.733Z,998.13
2017-09-12T08:20:59.704Z,998.03
2017-09-12T08:21:59.677Z,997.92
2017-09-12T08:22:59.650Z,997.88
2017-09-12T08:23:59.621Z,997.89
2017-09-12T08:24:59.592Z,997.75
2017-09-12T08:25:59.563Z,997.76
2017-09-12T08:26:59.536Z,997.75
2017-09-12T08:27:59.508Z,997.68
2017-09-12T08:28:59.478Z,997.75
2017-09-12T08:29:59.460Z,997.73
2017-09-12T08:30:59.420Z,997.78
2017-09-12T08:31:59.389Z,997.82
2017-09-12T08:32:59.361Z,997.82
2017-09-12T08:33:59.336Z,998.02
2017-09-12T08:34:59.304Z,997.99
2017-09-12T08:35:59.273Z,998.10
2017-09-12T08:36:59.243Z,998.06
2017-09-12T08:37:59.215Z,997.99
2017-09-12T08:38:59.188Z,997.92
2017-09-12T08:39:59.157Z,997.94
2017-09-12T08:40:59.129Z,998.02
2017-09-12T08:41:59.107Z,998.02
2017-09-12T08:42:59.073Z,997.90
2017-09-12T08:43:59.044Z,997.94
2017-09-12T08:44:59.017Z,997.95
2017-09-12T08:45:58.992Z,998.03
2017-09-12T08:46:58.959Z,997.98
2017-09-12T08:47:58.933Z,997.89
2017-09-12T08:48:58.900Z,997.87
2017-09-12T08:49:58.873Z,997.87
2017-09-12T08:50:58.847Z,997.93
2017-09-12T08:51:58.815Z,997.89
2017-09-12T08:52:58.786Z,997.94
2017-09-12T08:53:58.757Z,997.90
2017-09-12T08:54:58.734Z,997.80
2017-09-12T08:55:58.704Z,997.83
2017-09-12T08:56:58.673Z,997.88
2017-09-12T08:57:58.653Z,998.04
2017-09-12T08:58:58.618Z,997.98
2017-09-12T08:59:58.590Z,998.03
2017-09-12T09:00:58.569Z,998.02
2017-09-12T09:01:58.533Z,998.08
2017-09-12T09:02:58.505Z,997.98
2017-09-12T09:03:58.475Z,998.01
2017-09-12T09:04:58.447Z,998.12
2017-09-12T09:05:58.419Z,998.05
2017-09-12T09:06:58.388Z,998.02
2017-09-12T09:07:58.361Z,998.14
2017-09-12T09:08:58.336Z,998.28
2017-09-12T09:09:58.304Z,998.09
2017-09-12T09:10:58.276Z,998.00
2017-09-12T09:11:58.248Z,998.23
2017-09-12T09:12:58.220Z,998.16
2017-09-12T09:13:58.192Z,997.99
2017-09-12T09:14:58.163Z,998.12
2017-09-12T09:15:58.134Z,998.06
2017-09-12T09:16:58.103Z,998.08
2017-09-12T09:17:58.077Z,998.26
2017-09-12T09:18:58.048Z,998.27
2017-09-12T09:19:58.019Z,998.55
2017-09-12T09:20:57.992Z,999.92
2017-09-12T09:21:57.961Z,998.70
2017-09-12T09:22:57.933Z,999.89
2017-09-12T09:23:57.905Z,999.85
2017-09-12T09:24:57.878Z,999.04
2017-09-12T09:25:57.852Z,999.82
2017-09-12T09:26:57.824Z,998.92
2017-09-12T09:27:57.796Z,999.61
2017-09-12T09:28:57.771Z,999.09
2017-09-12T09:29:57.746Z,999.05
2017-09-12T09:30:57.723Z,998.71
2017-09-12T09:31:57.697Z,998.51
2017-09-12T09:32:57.674Z,998.48
2017-09-12T09:33:57.651Z,998.51
2017-09-12T09:34:57.628Z,998.12
2017-09-12T09:35:58.131Z,998.61
2017-09-12T09:36:57.584Z,998.27
2017-09-12T09:37:57.560Z,998.22
2017-09-12T09:38:57.538Z,998.33
2017-09-12T09:39:57.515Z,998.80
2017-09-12T09:40:57.494Z,998.75
2017-09-12T09:41:57.470Z,999.00
2017-09-12T09:42:57.447Z,998.88
2017-09-12T09:43:57.427Z,998.87
2017-09-12T09:44:57.402Z,999.16
2017-09-12T09:45:57.438Z,999.44
2017-09-12T09:46:57.360Z,999.74
2017-09-12T09:47:57.338Z,999.78
2017-09-12T09:48:57.318Z,999.63
2017-09-12T09:49:57.297Z,999.23
2017-09-12T09:50:57.276Z,998.89
2017-09-12T09:51:57.255Z,998.82
2017-09-12T09:52:57.236Z,998.90
2017-09-12T09:53:57.217Z,998.87
2017-09-12T09:54:57.196Z,999.00
2017-09-12T09:55:57.181Z,998.80
2017-09-12T09:56:57.158Z,998.85
2017-09-12T09:57:57.136Z,998.92
2017-09-12T09:58:57.119Z,998.87
2017-09-12T09:59:57.096Z,998.98
2017-09-12T10:00:57.078Z,998.76
2017-09-12T10:01:57.058Z,998.52
2017-09-12T10:02:57.039Z,998.45
2017-09-12T10:03:57.021Z,999.02
2017-09-12T10:04:57.000Z,998.44
2017-09-12T10:05:56.981Z,998.37
2017-09-12T10:06:56.963Z,998.43
2017-09-12T10:07:56.937Z,998.47
2017-09-12T10:08:56.917Z,999.08
2017-09-12T10:09:56.899Z,998.33
2017-09-12T10:10:56.878Z,998.46
2017-09-12T10:11:56.892Z,998.31
2017-09-12T10:12:56.830Z,999.27
2017-09-12T10:13:56.808Z,999.22
2017-09-12T10:14:56.783Z,999.17
2017-09-12T10:15:56.763Z,999.26
2017-09-12T10:16:56.741Z,999.33
2017-09-12T10:17:56.719Z,998.35
2017-09-12T10:18:56.698Z,998.31
2017-09-12T10:19:56.675Z,998.40
2017-09-12T10:20:56.663Z,998.78
2017-09-12T10:21:56.634Z,998.33
2017-09-12T10:22:56.622Z,998.39
2017-09-12T10:23:56.588Z,998.41
2017-09-12T10:24:56.564Z,998.39
2017-09-12T10:25:56.543Z,999.11
2017-09-12T10:26:56.520Z,998.30
2017-09-12T10:27:56.498Z,998.20
2017-09-12T10:28:56.472Z,998.21
2017-09-12T10:29:56.450Z,998.38
2017-09-12T10:30:56.428Z,1001.20
2017-09-12T10:31:56.404Z,1000.44
2017-09-12T10:32:56.376Z,1001.42
2017-09-12T10:33:56.730Z,1001.74
2017-09-12T10:34:56.333Z,998.82
2017-09-12T10:35:56.308Z,1000.69
2017-09-12T10:36:56.286Z,999.04
2017-09-12T10:37:56.735Z,998.52
2017-09-12T10:38:56.241Z,998.59
2017-09-12T10:39:56.222Z,998.45
2017-09-12T10:40:56.199Z,998.47
2017-09-12T10:41:56.177Z,998.40
2017-09-12T10:42:56.154Z,998.51
2017-09-12T10:43:56.132Z,998.43
2017-09-12T10:44:56.109Z,998.47
2017-09-12T10:45:56.086Z,998.38
2017-09-12T10:46:56.062Z,998.42
2017-09-12T10:47:56.037Z,999.01
2017-09-12T10:48:56.015Z,999.85
2017-09-12T10:49:55.988Z,998.72
2017-09-12T10:50:55.969Z,998.74
2017-09-12T10:51:55.942Z,998.50
2017-09-12T10:52:55.917Z,998.54
2017-09-12T10:53:55.893Z,998.40
2017-09-12T10:54:55.869Z,998.48
2017-09-12T10:55:55.846Z,998.66
2017-09-12T10:56:55.822Z,998.43
2017-09-12T10:57:55.796Z,998.39
2017-09-12T10:58:55.772Z,998.47
2017-09-12T10:59:55.747Z,998.41
2017-09-12T11:00:55.727Z,998.40
2017-09-12T11:01:55.697Z,998.44
2017-09-12T11:02:55.671Z,998.55
2017-09-12T11:03:55.643Z,998.77
2017-09-12T11:04:56.359Z,999.63
2017-09-12T11:05:55.593Z,999.23
2017-09-12T11:06:55.569Z,999.00
2017-09-12T11:07:55.541Z,998.83
2017-09-12T11:08:55.516Z,998.91
2017-09-12T11:09:55.493Z,999.50
2017-09-12T11:10:55.466Z,1000.13
2017-09-12T11:11:55.441Z,1000.21
2017-09-12T11:12:55.417Z,999.68
2017-09-12T11:13:55.395Z,999.88
2017-09-12T11:14:55.368Z,998.99
2017-09-12T11:15:55.358Z,998.82
2017-09-12T11:16:55.324Z,998.80
2017-09-12T11:17:55.301Z,998.72
2017-09-12T11:18:55.278Z,998.66
2017-09-12T11:19:55.257Z,998.57
2017-09-12T11:20:55.232Z,998.71
2017-09-12T11:21:55.209Z,998.74
2017-09-12T11:22:55.186Z,998.83
2017-09-12T11:23:55.165Z,998.84
2017-09-12T11:24:55.137Z,999.39
2017-09-12T11:25:55.114Z,999.43
2017-09-12T11:26:55.092Z,999.60
2017-09-12T11:27:55.067Z,999.63
2017-09-12T11:28:55.811Z,999.52
2017-09-12T11:29:55.024Z,999.54
2017-09-12T11:30:55.000Z,999.64
2017-09-12T11:31:54.977Z,999.78
2017-09-12T11:32:54.958Z,999.18
2017-09-12T11:33:54.941Z,999.26
2017-09-12T11:34:54.910Z,999.05
2017-09-12T11:35:54.891Z,999.73
2017-09-12T11:36:54.868Z,999.72
2017-09-12T11:37:54.850Z,999.71
2017-09-12T11:38:54.828Z,999.73
2017-09-12T11:39:54.807Z,999.68
2017-09-12T11:40:54.786Z,999.61
2017-09-12T11:41:54.767Z,999.63
2017-09-12T11:42:54.749Z,999.44
2017-09-12T11:43:54.729Z,999.24
2017-09-12T11:44:54.800Z,999.66
2017-09-12T11:45:54.692Z,999.52
2017-09-12T11:46:54.673Z,999.50
2017-09-12T11:47:54.653Z,999.41
2017-09-12T11:48:55.399Z,999.47
2017-09-12T11:49:54.619Z,999.51
2017-09-12T11:50:54.603Z,999.65
2017-09-12T11:51:54.581Z,999.32
2017-09-12T11:52:54.564Z,999.48
2017-09-12T11:53:54.546Z,999.44
2017-09-12T11:54:54.533Z,999.45
2017-09-12T11:55:54.510Z,999.19
2017-09-12T11:56:54.494Z,999.36
2017-09-12T11:57:54.475Z,999.54
2017-09-12T11:58:54.456Z,999.35
2017-09-12T11:59:54.436Z,999.39
2017-09-12T12:00:54.423Z,999.46
2017-09-12T12:01:54.403Z,998.80
2017-09-12T12:02:54.384Z,999.39
2017-09-12T12:03:54.367Z,999.42
2017-09-12T12:04:54.350Z,999.54
2017-09-12T12:05:54.329Z,999.22
2017-09-12T12:06:54.316Z,998.86
2017-09-12T12:07:54.297Z,998.84
2017-09-12T12:08:54.277Z,998.89
2017-09-12T12:09:54.257Z,998.90
2017-09-12T12:10:54.237Z,998.89
2017-09-12T12:11:54.212Z,998.74
2017-09-12T12:12:54.238Z,998.81
2017-09-12T12:13:54.178Z,998.95
2017-09-12T12:14:54.159Z,999.28
2017-09-12T12:15:54.135Z,999.41
2017-09-12T12:16:54.116Z,998.97
2017-09-12T12:17:54.095Z,998.89
2017-09-12T12:18:54.074Z,998.97
2017-09-12T12:19:54.051Z,999.35
2017-09-12T12:20:54.029Z,999.35
2017-09-12T12:21:54.008Z,999.14
2017-09-12T12:22:53.988Z,999.26
2017-09-12T12:23:53.964Z,999.12
2017-09-12T12:24:53.940Z,999.01
2017-09-12T12:25:53.926Z,998.94
2017-09-12T12:26:53.896Z,998.89
2017-09-12T12:27:53.873Z,998.90